Sunset, Arizona
Current Conditions -  °F | °C
As of 11:51 AM on Thursday 27 Nov 2014 (Local Time) from KSAD Reporting Station
Clear Clear  
Wind Chill: 67°   Ceiling: Unl
Heat Index: 67°   Visibility: 10mi
Dew Point: 20°   Wind: 10mph
Humidity: 17%   Direction: 150°SSE
Pressure: 30.32"   Gusts: NA
Location:  32.5598°N, 110.08°W
Report Text: KSAD 271851Z AUTO 15009KT 10SM CLR 19/M07 A3032 RMK AO2 SLP248 T01941067
Loading
Personal Weather Stations






























Interactive Weather Map New forecast layout! Learn more

10-Day Weather Forecast

Advertisements
Track Severe Weather on mobile